createdAt,value
2022-12-06T00:01:07.942Z,4.67
2022-12-06T00:03:38.060Z,4.17
2022-12-06T00:06:08.584Z,6.07
2022-12-06T00:08:36.817Z,2.87
2022-12-06T00:11:06.657Z,6.80
2022-12-06T00:13:34.706Z,4.03
2022-12-06T00:16:04.334Z,4.30
2022-12-06T00:18:33.333Z,4.13
2022-12-06T00:21:09.193Z,4.20
2022-12-06T00:23:38.391Z,5.63
2022-12-06T00:26:06.666Z,3.23
2022-12-06T00:28:35.426Z,5.73
2022-12-06T00:31:06.645Z,6.03
2022-12-06T00:33:35.413Z,3.03
2022-12-06T00:36:05.212Z,2.77
2022-12-06T00:38:34.937Z,3.73
2022-12-06T00:41:04.933Z,4.33
2022-12-06T00:43:34.847Z,4.70
2022-12-06T00:46:03.404Z,4.90
2022-12-06T00:48:31.666Z,6.53
2022-12-06T00:50:59.520Z,9.33
2022-12-06T00:53:28.012Z,4.57
2022-12-06T00:55:57.180Z,3.43
2022-12-06T00:58:25.494Z,3.67
2022-12-06T01:00:53.734Z,4.47
2022-12-06T01:03:22.188Z,5.37
2022-12-06T01:05:51.967Z,2.80
2022-12-06T01:08:20.583Z,4.17
2022-12-06T01:10:55.433Z,4.63
2022-12-06T01:13:24.829Z,3.20
2022-12-06T01:15:54.273Z,3.40
2022-12-06T01:18:22.257Z,4.40
2022-12-06T01:20:50.309Z,4.77
2022-12-06T01:23:17.990Z,2.33
2022-12-06T01:25:52.571Z,3.93
2022-12-06T01:28:20.289Z,3.93
2022-12-06T01:30:49.516Z,2.80
2022-12-06T01:33:17.407Z,2.80
2022-12-06T01:35:45.270Z,4.93
2022-12-06T01:38:13.453Z,5.83
2022-12-06T01:40:42.673Z,2.57
2022-12-06T01:43:35.269Z,3.70
2022-12-06T01:46:22.486Z,5.37
2022-12-06T01:48:53.695Z,5.33
2022-12-06T01:51:22.038Z,2.77
2022-12-06T01:53:53.441Z,3.57
2022-12-06T01:56:22.135Z,3.70
2022-12-06T01:58:54.941Z,5.73
2022-12-06T02:01:26.535Z,3.97
2022-12-06T02:03:56.618Z,2.97
2022-12-06T02:06:24.366Z,3.07
2022-12-06T02:08:54.610Z,3.40
2022-12-06T02:11:22.438Z,4.10
2022-12-06T02:13:50.245Z,3.77
2022-12-06T02:16:29.650Z,2.53
2022-12-06T02:19:01.739Z,5.43
2022-12-06T02:21:38.902Z,3.07
2022-12-06T02:24:28.411Z,2.53
2022-12-06T02:27:12.852Z,2.70
2022-12-06T02:30:10.941Z,3.93
2022-12-06T02:32:54.478Z,3.00
2022-12-06T02:35:33.133Z,2.20
2022-12-06T02:38:12.806Z,4.40
2022-12-06T02:40:48.084Z,2.27
2022-12-06T02:43:21.042Z,2.00
2022-12-06T02:45:52.841Z,2.13
2022-12-06T02:48:22.942Z,2.80
2022-12-06T02:50:56.818Z,2.50
2022-12-06T02:53:28.292Z,2.17
2022-12-06T02:55:56.601Z,1.77
2022-12-06T02:58:24.820Z,1.07
2022-12-06T03:00:54.898Z,2.20
2022-12-06T03:03:43.107Z,2.83
2022-12-06T03:06:46.896Z,2.53
2022-12-06T03:09:26.016Z,4.87
2022-12-06T03:12:01.806Z,1.23
2022-12-06T03:14:35.542Z,2.20
2022-12-06T03:17:13.993Z,1.50
2022-12-06T03:19:43.491Z,1.77
2022-12-06T03:22:15.571Z,1.87
2022-12-06T03:24:44.373Z,1.70
2022-12-06T03:27:15.109Z,1.77
2022-12-06T03:29:47.404Z,2.97
2022-12-06T03:32:18.701Z,1.20
2022-12-06T03:34:52.156Z,1.30
2022-12-06T03:37:23.844Z,1.27
2022-12-06T03:40:01.428Z,2.77
2022-12-06T03:42:29.989Z,2.13
2022-12-06T03:44:57.944Z,1.50
2022-12-06T03:47:32.323Z,3.07
2022-12-06T03:50:05.535Z,1.13
2022-12-06T03:52:34.849Z,1.40
2022-12-06T03:55:02.935Z,2.60
2022-12-06T03:57:30.656Z,2.83
2022-12-06T03:59:58.739Z,1.40
2022-12-06T04:02:26.619Z,0.93
2022-12-06T04:04:54.476Z,1.20
2022-12-06T04:07:23.648Z,1.20
2022-12-06T04:10:02.739Z,1.10
2022-12-06T04:12:49.448Z,1.17
2022-12-06T04:15:17.560Z,2.20
2022-12-06T04:18:00.097Z,2.67
2022-12-06T04:20:29.792Z,2.27
2022-12-06T04:23:03.628Z,1.80
2022-12-06T04:25:31.683Z,3.97
2022-12-06T04:28:17.140Z,3.97
2022-12-06T04:31:02.460Z,2.90
2022-12-06T04:33:47.892Z,1.17
2022-12-06T04:36:33.913Z,3.67
2022-12-06T04:39:03.439Z,1.27
2022-12-06T04:41:48.782Z,1.73
2022-12-06T04:44:16.881Z,1.80
2022-12-06T04:46:44.608Z,2.53
2022-12-06T04:49:15.471Z,2.87
2022-12-06T04:51:43.259Z,0.80
2022-12-06T04:54:12.509Z,1.47
2022-12-06T04:56:40.279Z,1.77
2022-12-06T04:59:08.025Z,1.83
2022-12-06T05:01:35.834Z,1.83
2022-12-06T05:04:03.833Z,2.97
2022-12-06T05:06:31.685Z,1.67
2022-12-06T05:08:59.446Z,3.03
2022-12-06T05:11:28.604Z,2.50
2022-12-06T05:13:56.379Z,2.17
2022-12-06T05:16:24.380Z,1.67
2022-12-06T05:18:52.245Z,1.30
2022-12-06T05:21:22.587Z,2.07
2022-12-06T05:23:50.816Z,0.87
2022-12-06T05:26:20.602Z,1.10
2022-12-06T05:28:50.096Z,2.03
2022-12-06T05:31:19.475Z,1.57
2022-12-06T05:33:47.860Z,1.33
2022-12-06T05:36:18.907Z,2.50
2022-12-06T05:38:51.149Z,2.20
2022-12-06T05:41:19.960Z,2.30
2022-12-06T05:43:49.282Z,3.03
2022-12-06T05:46:17.089Z,0.77
2022-12-06T05:48:45.255Z,1.57
2022-12-06T05:51:13.188Z,1.27
2022-12-06T05:53:41.402Z,3.80
2022-12-06T05:56:11.539Z,1.40
2022-12-06T05:58:40.244Z,0.80
2022-12-06T06:01:10.626Z,1.53
2022-12-06T06:03:45.513Z,1.17
2022-12-06T06:06:15.245Z,1.10
2022-12-06T06:08:43.071Z,2.93
2022-12-06T06:11:10.873Z,1.40
2022-12-06T06:13:38.558Z,2.87
2022-12-06T06:16:06.870Z,2.00
2022-12-06T06:18:37.246Z,1.07
2022-12-06T06:21:05.594Z,1.13
2022-12-06T06:23:33.775Z,2.10
2022-12-06T06:26:01.499Z,2.40
2022-12-06T06:28:29.209Z,3.00
2022-12-06T06:30:56.899Z,2.13
2022-12-06T06:33:24.562Z,1.93
2022-12-06T06:35:53.685Z,1.03
2022-12-06T06:38:21.432Z,2.07
2022-12-06T06:40:49.180Z,2.67
2022-12-06T06:43:20.376Z,2.00
2022-12-06T06:45:53.474Z,3.43
2022-12-06T06:48:21.780Z,2.43
2022-12-06T06:50:53.943Z,4.50
2022-12-06T06:53:26.707Z,1.83
2022-12-06T06:55:54.993Z,3.27
2022-12-06T06:58:22.746Z,1.30
2022-12-06T07:00:54.351Z,2.83
2022-12-06T07:03:22.243Z,1.57
2022-12-06T07:05:53.054Z,1.27
2022-12-06T07:08:21.237Z,2.23
2022-12-06T07:10:50.514Z,3.27
2022-12-06T07:13:19.116Z,4.20
2022-12-06T07:15:46.930Z,1.27
2022-12-06T07:18:14.892Z,2.47
2022-12-06T07:20:42.695Z,1.70
2022-12-06T07:23:10.498Z,1.37
2022-12-06T07:25:38.603Z,2.70
2022-12-06T07:28:08.235Z,3.87
2022-12-06T07:30:36.087Z,1.93
2022-12-06T07:33:04.141Z,2.37
2022-12-06T07:36:09.862Z,2.67
2022-12-06T07:38:20.086Z,1.70
2022-12-06T07:41:04.176Z,1.47
2022-12-06T07:43:51.338Z,1.53
2022-12-06T07:46:19.142Z,2.27
2022-12-06T07:48:46.853Z,4.40
2022-12-06T07:51:14.569Z,3.47
2022-12-06T07:53:42.727Z,2.63
2022-12-06T07:56:10.821Z,2.47
2022-12-06T07:58:40.058Z,1.83
2022-12-06T08:01:07.878Z,2.57
2022-12-06T08:03:35.627Z,2.77
2022-12-06T08:06:03.430Z,1.93
2022-12-06T08:08:32.894Z,5.30
2022-12-06T08:11:00.903Z,1.77
2022-12-06T08:13:29.006Z,2.23
2022-12-06T08:15:58.378Z,2.90
2022-12-06T08:18:26.579Z,2.40
2022-12-06T08:20:54.346Z,3.93
2022-12-06T08:23:22.128Z,3.63
2022-12-06T08:25:57.841Z,3.50
2022-12-06T08:28:25.731Z,5.87
2022-12-06T08:30:55.992Z,5.47
2022-12-06T08:33:29.333Z,3.97
2022-12-06T08:35:57.034Z,2.37
2022-12-06T08:38:24.860Z,4.47
2022-12-06T08:40:52.909Z,4.50
2022-12-06T08:43:20.674Z,3.47
2022-12-06T08:45:51.878Z,5.53
2022-12-06T08:48:19.977Z,2.90
2022-12-06T08:50:49.090Z,2.83
2022-12-06T08:53:16.753Z,2.60
2022-12-06T08:56:00.464Z,7.30
2022-12-06T08:58:30.393Z,3.07
2022-12-06T09:00:58.262Z,3.77
2022-12-06T09:03:26.616Z,2.47
2022-12-06T09:05:55.853Z,5.43
2022-12-06T09:08:24.066Z,4.07
2022-12-06T09:10:53.313Z,4.47
2022-12-06T09:13:21.070Z,3.60
2022-12-06T09:15:49.152Z,4.37
2022-12-06T09:18:17.052Z,4.33
2022-12-06T09:20:44.948Z,2.27
2022-12-06T09:23:14.082Z,2.10
2022-12-06T09:25:42.686Z,3.40
2022-12-06T09:28:11.687Z,2.10
2022-12-06T09:30:39.467Z,4.23
2022-12-06T09:33:07.223Z,2.10
2022-12-06T09:35:36.554Z,1.93
2022-12-06T09:38:04.684Z,2.90
2022-12-06T09:40:41.360Z,2.33
2022-12-06T09:43:33.545Z,6.80
2022-12-06T09:46:21.205Z,6.40
2022-12-06T09:49:22.899Z,4.10
2022-12-06T09:52:05.752Z,3.37
2022-12-06T09:54:51.063Z,4.10
2022-12-06T09:57:29.432Z,4.47
2022-12-06T10:00:08.525Z,3.57
2022-12-06T10:02:56.089Z,3.63
2022-12-06T10:05:39.987Z,3.93
2022-12-06T10:08:23.796Z,2.97
2022-12-06T10:11:01.667Z,3.53
2022-12-06T10:13:54.928Z,4.83
2022-12-06T10:16:37.418Z,3.00
2022-12-06T10:19:16.522Z,3.07
2022-12-06T10:21:54.884Z,3.80
2022-12-06T10:24:35.955Z,2.27
2022-12-06T10:27:09.472Z,3.40
2022-12-06T10:29:49.934Z,2.90
2022-12-06T10:32:20.437Z,4.73
2022-12-06T10:34:56.391Z,3.00
2022-12-06T10:37:40.094Z,3.33
2022-12-06T10:40:15.454Z,6.60
2022-12-06T10:42:49.027Z,2.53
2022-12-06T10:45:44.586Z,3.40
2022-12-06T10:48:22.085Z,5.97
2022-12-06T10:50:56.860Z,3.40
2022-12-06T10:53:29.541Z,4.13
2022-12-06T10:56:02.336Z,7.00
2022-12-06T10:58:37.295Z,4.17
2022-12-06T11:01:12.258Z,3.40
2022-12-06T11:03:44.012Z,2.73
2022-12-06T11:06:16.291Z,3.67
2022-12-06T11:08:47.837Z,5.87
2022-12-06T11:11:19.409Z,5.27
2022-12-06T11:13:52.156Z,4.20
2022-12-06T11:16:25.669Z,3.10
2022-12-06T11:18:57.328Z,4.23
2022-12-06T11:21:32.322Z,3.50
2022-12-06T11:24:04.119Z,6.30
2022-12-06T11:26:39.122Z,4.73
2022-12-06T11:29:12.271Z,2.50
2022-12-06T11:31:45.525Z,1.30
2022-12-06T11:34:17.676Z,2.53
2022-12-06T11:36:48.221Z,2.63
2022-12-06T11:39:16.898Z,0.80
2022-12-06T11:41:48.134Z,2.60
2022-12-06T11:44:20.376Z,1.87
2022-12-06T11:46:54.571Z,1.27
2022-12-06T11:49:28.836Z,1.77
2022-12-06T11:51:58.812Z,0.80
2022-12-06T11:54:32.839Z,0.80
2022-12-06T11:57:12.541Z,0.40
2022-12-06T11:59:40.277Z,3.30
2022-12-06T12:02:31.429Z,1.57
2022-12-06T12:05:10.508Z,0.90
2022-12-06T12:07:41.264Z,1.87
2022-12-06T12:10:27.282Z,2.57
2022-12-06T12:13:12.864Z,1.00
2022-12-06T12:15:48.749Z,2.00
2022-12-06T12:18:24.949Z,1.17
2022-12-06T12:20:54.464Z,1.10
2022-12-06T12:23:26.704Z,0.40
2022-12-06T12:26:03.160Z,0.57
2022-12-06T12:28:32.596Z,0.50
2022-12-06T12:31:01.636Z,0.70
2022-12-06T12:33:31.077Z,2.33
2022-12-06T12:36:15.987Z,2.17
2022-12-06T12:38:51.172Z,1.20
2022-12-06T12:41:25.984Z,2.60
2022-12-06T12:44:35.813Z,1.47
2022-12-06T12:46:53.785Z,0.80
2022-12-06T12:49:32.288Z,1.53
2022-12-06T12:52:01.404Z,3.17
2022-12-06T12:54:32.659Z,2.07
2022-12-06T12:57:02.562Z,1.63
2022-12-06T12:59:36.906Z,1.67
2022-12-06T13:02:14.582Z,2.47
2022-12-06T13:04:46.735Z,1.40
2022-12-06T13:07:23.139Z,1.70
2022-12-06T13:10:01.439Z,2.63
2022-12-06T13:12:34.270Z,1.17
2022-12-06T13:15:07.677Z,3.27
2022-12-06T13:17:38.523Z,0.50
2022-12-06T13:20:22.212Z,0.30
2022-12-06T13:22:54.606Z,1.03
2022-12-06T13:25:22.522Z,1.43
2022-12-06T13:27:54.555Z,1.43
2022-12-06T13:30:24.791Z,1.23
2022-12-06T13:32:55.840Z,1.00
2022-12-06T13:35:30.483Z,0.60
2022-12-06T13:38:00.555Z,1.87
2022-12-06T13:40:47.834Z,1.10
2022-12-06T13:43:55.708Z,0.70
2022-12-06T13:46:29.975Z,0.63
2022-12-06T13:48:59.906Z,0.60
2022-12-06T13:51:53.066Z,1.23
2022-12-06T13:54:33.758Z,0.90
2022-12-06T13:57:20.536Z,0.40
2022-12-06T13:59:48.326Z,1.33
2022-12-06T14:02:52.828Z,0.33
2022-12-06T14:08:34.353Z,2.43
2022-12-06T14:11:24.535Z,2.33
2022-12-06T14:14:02.437Z,1.30
2022-12-06T14:16:35.505Z,1.43
2022-12-06T14:19:13.501Z,1.57
2022-12-06T14:21:43.385Z,2.67
2022-12-06T14:27:13.321Z,0.90
2022-12-06T14:29:41.931Z,1.17
2022-12-06T14:32:10.548Z,2.67
2022-12-06T14:34:38.607Z,2.40
2022-12-06T14:37:20.006Z,1.27
2022-12-06T14:39:52.704Z,2.27
2022-12-06T14:42:39.946Z,1.20
2022-12-06T14:45:14.800Z,3.17
2022-12-06T14:47:44.308Z,1.70
2022-12-06T14:50:25.883Z,2.47
2022-12-06T14:53:06.682Z,2.30
2022-12-06T14:55:36.536Z,2.83
2022-12-06T14:58:16.589Z,2.50
2022-12-06T15:00:50.755Z,0.57
2022-12-06T15:03:32.171Z,1.70
2022-12-06T15:06:18.931Z,2.83
2022-12-06T15:08:53.637Z,5.37
2022-12-06T15:11:44.428Z,2.27
2022-12-06T15:14:15.849Z,3.20
2022-12-06T15:16:46.637Z,1.13
2022-12-06T15:19:17.113Z,2.67
2022-12-06T15:21:44.852Z,2.23
2022-12-06T15:24:21.183Z,1.53
2022-12-06T15:26:49.675Z,4.80
2022-12-06T15:29:19.380Z,5.37
2022-12-06T15:31:50.541Z,2.83
2022-12-06T15:34:23.588Z,3.83
2022-12-06T15:37:09.016Z,2.70
2022-12-06T15:39:39.795Z,2.10
2022-12-06T15:42:17.739Z,2.77
2022-12-06T15:44:49.443Z,1.73
2022-12-06T15:47:28.539Z,2.80
2022-12-06T15:49:58.144Z,1.87
2022-12-06T15:52:27.478Z,1.97
2022-12-06T15:54:55.592Z,2.53
2022-12-06T15:57:23.352Z,3.70
2022-12-06T15:59:52.429Z,1.40
2022-12-06T16:02:20.770Z,3.03
2022-12-06T16:04:50.912Z,2.20
2022-12-06T16:07:19.643Z,2.13
2022-12-06T16:09:47.867Z,2.67
2022-12-06T16:12:15.567Z,2.23
2022-12-06T16:14:43.824Z,0.87
2022-12-06T16:17:13.058Z,3.87
2022-12-06T16:19:58.223Z,0.80
2022-12-06T16:22:53.181Z,2.10
2022-12-06T16:25:20.761Z,2.47
2022-12-06T16:27:48.534Z,6.07
2022-12-06T16:30:17.244Z,1.47
2022-12-06T16:32:46.408Z,0.40
2022-12-06T16:35:14.094Z,1.43
2022-12-06T16:37:41.925Z,1.40
2022-12-06T16:40:20.331Z,0.40
2022-12-06T16:42:48.126Z,0.30
2022-12-06T16:45:16.428Z,1.07
2022-12-06T16:47:45.466Z,0.30
2022-12-06T16:50:22.305Z,0.27
2022-12-06T16:52:50.462Z,1.73
2022-12-06T16:55:18.569Z,0.93
2022-12-06T16:57:46.637Z,2.50
2022-12-06T17:00:16.081Z,2.17
2022-12-06T17:02:44.686Z,2.30
2022-12-06T17:05:19.612Z,3.10
2022-12-06T17:07:47.488Z,3.00
2022-12-06T17:10:18.189Z,3.70
2022-12-06T17:12:47.631Z,3.40
2022-12-06T17:15:16.854Z,4.33
2022-12-06T17:17:44.709Z,5.20
2022-12-06T17:20:14.264Z,4.53
2022-12-06T17:22:43.489Z,4.93
2022-12-06T17:25:12.618Z,5.00
2022-12-06T17:27:41.559Z,5.63
2022-12-06T17:30:14.133Z,5.10
2022-12-06T17:32:41.981Z,5.87
2022-12-06T17:35:09.843Z,4.60
2022-12-06T17:37:37.649Z,4.27
2022-12-06T17:40:08.319Z,4.30
2022-12-06T17:42:53.510Z,3.93
2022-12-06T17:45:24.762Z,4.23
2022-12-06T17:47:52.764Z,4.20
2022-12-06T17:50:20.771Z,3.83
2022-12-06T17:52:48.553Z,4.93
2022-12-06T17:55:18.264Z,4.70
2022-12-06T17:57:46.066Z,3.53
2022-12-06T18:00:14.935Z,3.57
2022-12-06T18:02:42.842Z,4.60
2022-12-06T18:05:10.708Z,4.97
2022-12-06T18:07:38.524Z,5.97
2022-12-06T18:10:07.816Z,8.23
2022-12-06T18:12:36.996Z,7.57
2022-12-06T18:15:25.414Z,5.63
2022-12-06T18:17:53.178Z,5.37
2022-12-06T18:20:20.999Z,5.67
2022-12-06T18:22:48.768Z,7.17
2022-12-06T18:25:16.527Z,4.00
2022-12-06T18:27:45.878Z,4.50
2022-12-06T18:30:13.987Z,4.93
2022-12-06T18:32:41.842Z,4.83
2022-12-06T18:35:10.378Z,6.63
2022-12-06T18:37:38.207Z,3.23
2022-12-06T18:40:07.598Z,4.97
2022-12-06T18:42:35.499Z,7.33
2022-12-06T18:45:05.645Z,4.83
2022-12-06T18:47:33.528Z,4.23
2022-12-06T18:50:01.346Z,3.77
2022-12-06T18:52:29.244Z,3.63
2022-12-06T18:54:57.009Z,5.37
2022-12-06T18:57:30.509Z,6.43
2022-12-06T18:59:59.970Z,5.17
2022-12-06T19:02:29.577Z,5.77
2022-12-06T19:04:57.350Z,6.33
2022-12-06T19:07:25.244Z,4.87
2022-12-06T19:09:52.989Z,6.53
2022-12-06T19:12:20.871Z,6.73
2022-12-06T19:14:48.600Z,5.97
2022-12-06T19:17:16.377Z,5.50
2022-12-06T19:19:45.488Z,4.27
2022-12-06T19:22:13.374Z,3.37
2022-12-06T19:24:41.251Z,2.50
2022-12-06T19:27:09.134Z,2.40
2022-12-06T19:29:36.933Z,1.50
2022-12-06T19:32:04.981Z,2.73
2022-12-06T19:34:32.765Z,5.03
2022-12-06T19:37:01.896Z,2.30
2022-12-06T19:39:29.704Z,2.83
2022-12-06T19:42:14.893Z,4.13
2022-12-06T19:44:42.827Z,4.57
2022-12-06T19:47:11.573Z,2.83
2022-12-06T19:49:39.504Z,3.43
2022-12-06T19:52:08.659Z,2.73
2022-12-06T19:54:37.258Z,2.30
2022-12-06T19:57:05.850Z,5.90
2022-12-06T19:59:39.045Z,6.57
2022-12-06T20:02:08.363Z,8.13
2022-12-06T20:04:39.519Z,6.73
2022-12-06T20:07:09.713Z,7.37
2022-12-06T20:09:37.549Z,5.13
2022-12-06T20:12:06.399Z,4.40
2022-12-06T20:14:38.368Z,2.97
2022-12-06T20:17:08.865Z,2.80
2022-12-06T20:19:37.293Z,3.17
2022-12-06T20:22:05.065Z,2.70
2022-12-06T20:24:34.247Z,2.00
2022-12-06T20:27:02.180Z,2.90
2022-12-06T20:29:30.126Z,3.50
2022-12-06T20:31:59.374Z,3.97
2022-12-06T20:34:29.391Z,1.37
2022-12-06T20:36:57.156Z,1.47
2022-12-06T20:39:27.056Z,1.17
2022-12-06T20:41:56.213Z,1.47
2022-12-06T20:44:24.291Z,1.73
2022-12-06T20:46:53.492Z,3.47
2022-12-06T20:49:21.499Z,1.47
2022-12-06T20:51:52.949Z,3.00
2022-12-06T20:54:22.554Z,4.17
2022-12-06T20:56:52.006Z,4.30
2022-12-06T20:59:21.781Z,2.03
2022-12-06T21:01:49.826Z,2.47
2022-12-06T21:04:17.857Z,0.97
2022-12-06T21:06:45.617Z,3.53
2022-12-06T21:09:13.387Z,3.20
2022-12-06T21:11:41.240Z,4.00
2022-12-06T21:14:09.064Z,1.10
2022-12-06T21:16:38.736Z,1.20
2022-12-06T21:19:08.634Z,2.50
2022-12-06T21:21:38.011Z,1.90
2022-12-06T21:24:07.718Z,5.80
2022-12-06T21:26:36.199Z,1.40
2022-12-06T21:29:05.203Z,0.40
2022-12-06T21:31:35.313Z,1.07
2022-12-06T21:34:05.432Z,0.60
2022-12-06T21:36:33.522Z,2.30
2022-12-06T21:39:01.613Z,1.60
2022-12-06T21:41:29.422Z,1.27
2022-12-06T21:43:57.230Z,2.43
2022-12-06T21:46:27.218Z,2.60
2022-12-06T21:48:56.939Z,2.77
2022-12-06T21:51:28.556Z,1.03
2022-12-06T21:53:56.749Z,1.87
2022-12-06T21:56:26.711Z,2.00
2022-12-06T21:58:54.752Z,2.10
2022-12-06T22:01:25.489Z,1.10
2022-12-06T22:03:55.410Z,0.97
2022-12-06T22:06:24.174Z,1.30
2022-12-06T22:08:57.443Z,2.87
2022-12-06T22:11:25.533Z,2.37
2022-12-06T22:13:53.436Z,2.57
2022-12-06T22:16:21.465Z,2.13
2022-12-06T22:18:49.183Z,2.23
2022-12-06T22:21:18.925Z,1.80
2022-12-06T22:23:47.507Z,4.80
2022-12-06T22:26:18.534Z,5.47
2022-12-06T22:28:46.579Z,3.57
2022-12-06T22:31:16.406Z,2.70
2022-12-06T22:33:44.598Z,1.77
2022-12-06T22:36:13.419Z,3.07
2022-12-06T22:38:41.130Z,2.30
2022-12-06T22:41:10.016Z,3.63
2022-12-06T22:43:39.162Z,4.03
2022-12-06T22:46:08.823Z,6.27
2022-12-06T22:48:37.264Z,4.17
2022-12-06T22:51:09.585Z,2.73
2022-12-06T22:53:37.525Z,4.20
2022-12-06T22:56:05.620Z,1.77
2022-12-06T22:58:33.469Z,2.30
2022-12-06T23:01:11.823Z,3.43
2022-12-06T23:03:44.276Z,2.07
2022-12-06T23:06:12.140Z,3.23
2022-12-06T23:08:39.967Z,3.03
2022-12-06T23:11:10.094Z,4.83
2022-12-06T23:13:37.948Z,1.93
2022-12-06T23:16:10.365Z,4.87
2022-12-06T23:18:38.245Z,2.27
2022-12-06T23:21:08.244Z,2.23
2022-12-06T23:23:36.616Z,1.20
2022-12-06T23:26:08.171Z,2.50
2022-12-06T23:28:36.363Z,2.43
2022-12-06T23:31:05.542Z,2.83
2022-12-06T23:33:35.073Z,2.67
2022-12-06T23:36:05.380Z,4.63
2022-12-06T23:38:33.577Z,4.70
2022-12-06T23:41:06.044Z,3.60
2022-12-06T23:43:33.937Z,2.03
2022-12-06T23:46:07.218Z,1.50
2022-12-06T23:48:37.292Z,4.13
2022-12-06T23:51:07.288Z,2.13
2022-12-06T23:53:35.820Z,1.63
2022-12-06T23:56:07.282Z,1.50
2022-12-06T23:58:35.761Z,2.50
